sensor_id;sensor_type;location;lat;lon;timestamp;temperature;humidity
52209;DHT22;38507;53.132;6.394;2022-08-18T00:00:15;18.90;99.90
52209;DHT22;38507;53.132;6.394;2022-08-18T00:02:41;18.90;99.90
52209;DHT22;38507;53.132;6.394;2022-08-18T00:05:09;18.90;99.90
52209;DHT22;38507;53.132;6.394;2022-08-18T00:07:37;18.90;99.90
52209;DHT22;38507;53.132;6.394;2022-08-18T00:10:05;18.80;99.90
52209;DHT22;38507;53.132;6.394;2022-08-18T00:12:37;18.80;99.90
52209;DHT22;38507;53.132;6.394;2022-08-18T00:15:07;18.80;99.90
52209;DHT22;38507;53.132;6.394;2022-08-18T00:17:33;18.80;99.90
52209;DHT22;38507;53.132;6.394;2022-08-18T00:20:00;18.80;99.90
52209;DHT22;38507;53.132;6.394;2022-08-18T00:22:26;18.80;99.90
52209;DHT22;38507;53.132;6.394;2022-08-18T00:24:54;18.80;99.90
52209;DHT22;38507;53.132;6.394;2022-08-18T00:27:26;18.80;99.90
52209;DHT22;38507;53.132;6.394;2022-08-18T00:29:54;18.70;99.90
52209;DHT22;38507;53.132;6.394;2022-08-18T00:32:24;18.80;99.90
52209;DHT22;38507;53.132;6.394;2022-08-18T00:34:51;18.70;99.90
52209;DHT22;38507;53.132;6.394;2022-08-18T00:37:16;18.60;99.90
52209;DHT22;38507;53.132;6.394;2022-08-18T00:39:42;18.70;99.90
52209;DHT22;38507;53.132;6.394;2022-08-18T00:42:17;18.80;99.90
52209;DHT22;38507;53.132;6.394;2022-08-18T00:44:43;18.70;99.90
52209;DHT22;38507;53.132;6.394;2022-08-18T00:47:10;18.70;99.90
52209;DHT22;38507;53.132;6.394;2022-08-18T00:49:37;18.70;99.90
52209;DHT22;38507;53.132;6.394;2022-08-18T00:52:05;18.70;99.90
52209;DHT22;38507;53.132;6.394;2022-08-18T00:54:32;18.70;99.90
52209;DHT22;38507;53.132;6.394;2022-08-18T00:57:02;18.60;99.90
52209;DHT22;38507;53.132;6.394;2022-08-18T01:02:00;18.60;99.90
52209;DHT22;38507;53.132;6.394;2022-08-18T01:04:44;18.60;99.90
52209;DHT22;38507;53.132;6.394;2022-08-18T01:07:23;18.60;99.90
52209;DHT22;38507;53.132;6.394;2022-08-18T01:09:50;18.60;99.90
52209;DHT22;38507;53.132;6.394;2022-08-18T01:12:17;18.60;99.90
52209;DHT22;38507;53.132;6.394;2022-08-18T01:14:44;18.60;99.90
52209;DHT22;38507;53.132;6.394;2022-08-18T01:17:10;18.70;99.90
52209;DHT22;38507;53.132;6.394;2022-08-18T01:19:56;18.70;99.90
52209;DHT22;38507;53.132;6.394;2022-08-18T01:25:14;18.70;99.90
52209;DHT22;38507;53.132;6.394;2022-08-18T01:27:58;18.60;99.90
52209;DHT22;38507;53.132;6.394;2022-08-18T01:30:26;18.60;99.90
52209;DHT22;38507;53.132;6.394;2022-08-18T01:32:52;18.50;99.90
52209;DHT22;38507;53.132;6.394;2022-08-18T01:35:20;18.60;99.90
52209;DHT22;38507;53.132;6.394;2022-08-18T01:37:47;18.50;99.90
52209;DHT22;38507;53.132;6.394;2022-08-18T01:40:16;18.50;99.90
52209;DHT22;38507;53.132;6.394;2022-08-18T01:42:42;18.60;99.90
52209;DHT22;38507;53.132;6.394;2022-08-18T01:45:11;18.50;99.90
52209;DHT22;38507;53.132;6.394;2022-08-18T01:47:36;18.50;99.90
52209;DHT22;38507;53.132;6.394;2022-08-18T01:50:03;18.60;99.90
52209;DHT22;38507;53.132;6.394;2022-08-18T01:52:30;18.50;99.90
52209;DHT22;38507;53.132;6.394;2022-08-18T01:54:55;18.60;99.90
52209;DHT22;38507;53.132;6.394;2022-08-18T01:57:22;18.50;99.90
52209;DHT22;38507;53.132;6.394;2022-08-18T01:59:48;18.60;99.90
52209;DHT22;38507;53.132;6.394;2022-08-18T02:02:24;18.60;99.90
52209;DHT22;38507;53.132;6.394;2022-08-18T02:04:58;18.60;99.90
52209;DHT22;38507;53.132;6.394;2022-08-18T02:07:26;18.50;99.90
52209;DHT22;38507;53.132;6.394;2022-08-18T02:09:51;18.60;99.90
52209;DHT22;38507;53.132;6.394;2022-08-18T02:12:17;18.50;99.90
52209;DHT22;38507;53.132;6.394;2022-08-18T02:14:43;18.50;99.90
52209;DHT22;38507;53.132;6.394;2022-08-18T02:17:10;18.50;99.90
52209;DHT22;38507;53.132;6.394;2022-08-18T02:19:40;18.50;99.90
52209;DHT22;38507;53.132;6.394;2022-08-18T02:22:07;18.50;99.90
52209;DHT22;38507;53.132;6.394;2022-08-18T02:24:34;18.50;99.90
52209;DHT22;38507;53.132;6.394;2022-08-18T02:27:00;18.50;99.90
52209;DHT22;38507;53.132;6.394;2022-08-18T02:29:26;18.50;99.90
52209;DHT22;38507;53.132;6.394;2022-08-18T02:31:51;18.50;99.90
52209;DHT22;38507;53.132;6.394;2022-08-18T02:34:18;18.40;99.90
52209;DHT22;38507;53.132;6.394;2022-08-18T02:36:43;18.50;99.90
52209;DHT22;38507;53.132;6.394;2022-08-18T02:39:09;18.50;99.90
52209;DHT22;38507;53.132;6.394;2022-08-18T02:41:35;18.50;99.90
52209;DHT22;38507;53.132;6.394;2022-08-18T02:44:01;18.30;99.90
52209;DHT22;38507;53.132;6.394;2022-08-18T02:46:27;18.40;99.90
52209;DHT22;38507;53.132;6.394;2022-08-18T02:48:53;18.50;99.90
52209;DHT22;38507;53.132;6.394;2022-08-18T02:51:19;18.40;99.90
52209;DHT22;38507;53.132;6.394;2022-08-18T02:53:46;18.40;99.90
52209;DHT22;38507;53.132;6.394;2022-08-18T02:56:17;18.40;99.90
52209;DHT22;38507;53.132;6.394;2022-08-18T02:58:58;18.40;99.90
52209;DHT22;38507;53.132;6.394;2022-08-18T03:01:27;18.40;99.90
52209;DHT22;38507;53.132;6.394;2022-08-18T03:03:55;18.40;99.90
52209;DHT22;38507;53.132;6.394;2022-08-18T03:06:22;18.30;99.90
52209;DHT22;38507;53.132;6.394;2022-08-18T03:08:48;18.30;99.90
52209;DHT22;38507;53.132;6.394;2022-08-18T03:11:24;18.40;99.90
52209;DHT22;38507;53.132;6.394;2022-08-18T03:13:50;18.40;99.90
52209;DHT22;38507;53.132;6.394;2022-08-18T03:16:16;18.40;99.90
52209;DHT22;38507;53.132;6.394;2022-08-18T03:18:43;18.40;99.90
52209;DHT22;38507;53.132;6.394;2022-08-18T03:21:13;18.40;99.90
52209;DHT22;38507;53.132;6.394;2022-08-18T03:23:39;18.40;99.90
52209;DHT22;38507;53.132;6.394;2022-08-18T03:26:06;18.40;99.90
52209;DHT22;38507;53.132;6.394;2022-08-18T03:28:36;18.30;99.90
52209;DHT22;38507;53.132;6.394;2022-08-18T03:31:02;18.30;99.90
52209;DHT22;38507;53.132;6.394;2022-08-18T03:33:28;18.30;99.90
52209;DHT22;38507;53.132;6.394;2022-08-18T03:35:53;18.30;99.90
52209;DHT22;38507;53.132;6.394;2022-08-18T03:38:19;18.30;99.90
52209;DHT22;38507;53.132;6.394;2022-08-18T03:40:52;18.30;99.90
52209;DHT22;38507;53.132;6.394;2022-08-18T03:43:18;18.30;99.90
52209;DHT22;38507;53.132;6.394;2022-08-18T03:45:43;18.30;99.90
52209;DHT22;38507;53.132;6.394;2022-08-18T03:48:09;18.30;99.90
52209;DHT22;38507;53.132;6.394;2022-08-18T03:50:35;18.40;99.90
52209;DHT22;38507;53.132;6.394;2022-08-18T03:53:02;18.30;99.90
52209;DHT22;38507;53.132;6.394;2022-08-18T03:55:30;18.40;99.90
52209;DHT22;38507;53.132;6.394;2022-08-18T03:58:00;18.40;99.90
52209;DHT22;38507;53.132;6.394;2022-08-18T04:00:30;18.40;99.90
52209;DHT22;38507;53.132;6.394;2022-08-18T04:03:01;18.40;99.90
52209;DHT22;38507;53.132;6.394;2022-08-18T04:05:27;18.40;99.90
52209;DHT22;38507;53.132;6.394;2022-08-18T04:07:54;18.40;99.90
52209;DHT22;38507;53.132;6.394;2022-08-18T04:10:24;18.40;99.90
52209;DHT22;38507;53.132;6.394;2022-08-18T04:12:50;18.40;99.90
52209;DHT22;38507;53.132;6.394;2022-08-18T04:15:16;18.40;99.90
52209;DHT22;38507;53.132;6.394;2022-08-18T04:17:42;18.40;99.90
52209;DHT22;38507;53.132;6.394;2022-08-18T04:20:10;18.30;99.90
52209;DHT22;38507;53.132;6.394;2022-08-18T04:22:38;18.40;99.90
52209;DHT22;38507;53.132;6.394;2022-08-18T04:25:05;18.30;99.90
52209;DHT22;38507;53.132;6.394;2022-08-18T04:27:34;18.30;99.90
52209;DHT22;38507;53.132;6.394;2022-08-18T04:30:00;18.40;99.90
52209;DHT22;38507;53.132;6.394;2022-08-18T04:32:25;18.30;99.90
52209;DHT22;38507;53.132;6.394;2022-08-18T04:34:51;18.40;99.90
52209;DHT22;38507;53.132;6.394;2022-08-18T04:37:17;18.40;99.90
52209;DHT22;38507;53.132;6.394;2022-08-18T04:39:43;18.40;99.90
52209;DHT22;38507;53.132;6.394;2022-08-18T04:42:10;18.40;99.90
52209;DHT22;38507;53.132;6.394;2022-08-18T04:44:35;18.40;99.90
52209;DHT22;38507;53.132;6.394;2022-08-18T04:47:03;18.40;99.90
52209;DHT22;38507;53.132;6.394;2022-08-18T04:49:29;18.40;99.90
52209;DHT22;38507;53.132;6.394;2022-08-18T04:51:57;18.40;99.90
52209;DHT22;38507;53.132;6.394;2022-08-18T04:54:41;18.40;99.90
52209;DHT22;38507;53.132;6.394;2022-08-18T04:57:16;18.30;99.90
52209;DHT22;38507;53.132;6.394;2022-08-18T04:59:44;18.40;99.90
52209;DHT22;38507;53.132;6.394;2022-08-18T05:02:11;18.40;99.90
52209;DHT22;38507;53.132;6.394;2022-08-18T05:04:40;18.40;99.90
52209;DHT22;38507;53.132;6.394;2022-08-18T05:07:10;18.40;99.90
52209;DHT22;38507;53.132;6.394;2022-08-18T05:09:37;18.40;99.90
52209;DHT22;38507;53.132;6.394;2022-08-18T05:12:04;18.50;99.90
52209;DHT22;38507;53.132;6.394;2022-08-18T05:14:31;18.50;99.90
52209;DHT22;38507;53.132;6.394;2022-08-18T05:17:03;18.40;99.90
52209;DHT22;38507;53.132;6.394;2022-08-18T05:19:29;18.50;99.90
52209;DHT22;38507;53.132;6.394;2022-08-18T05:21:57;18.50;99.90
52209;DHT22;38507;53.132;6.394;2022-08-18T05:24:24;18.50;99.90
52209;DHT22;38507;53.132;6.394;2022-08-18T05:26:51;18.60;99.90
52209;DHT22;38507;53.132;6.394;2022-08-18T05:29:21;18.50;99.90
52209;DHT22;38507;53.132;6.394;2022-08-18T05:31:51;18.50;99.90
52209;DHT22;38507;53.132;6.394;2022-08-18T05:34:20;18.60;99.90
52209;DHT22;38507;53.132;6.394;2022-08-18T05:36:53;18.70;99.90
52209;DHT22;38507;53.132;6.394;2022-08-18T05:39:27;18.70;99.90
52209;DHT22;38507;53.132;6.394;2022-08-18T05:42:06;18.70;99.90
52209;DHT22;38507;53.132;6.394;2022-08-18T05:44:39;18.70;99.90
52209;DHT22;38507;53.132;6.394;2022-08-18T05:49:47;18.70;99.90
52209;DHT22;38507;53.132;6.394;2022-08-18T05:52:39;18.70;99.90
52209;DHT22;38507;53.132;6.394;2022-08-18T05:55:14;18.70;99.90
52209;DHT22;38507;53.132;6.394;2022-08-18T05:58:03;18.70;99.90
52209;DHT22;38507;53.132;6.394;2022-08-18T06:00:31;18.70;99.90
52209;DHT22;38507;53.132;6.394;2022-08-18T06:03:16;18.70;99.90
52209;DHT22;38507;53.132;6.394;2022-08-18T06:05:54;18.80;99.90
52209;DHT22;38507;53.132;6.394;2022-08-18T06:08:27;18.80;99.90
52209;DHT22;38507;53.132;6.394;2022-08-18T06:10:53;18.80;99.90
52209;DHT22;38507;53.132;6.394;2022-08-18T06:13:19;18.80;99.90
52209;DHT22;38507;53.132;6.394;2022-08-18T06:16:07;18.80;99.90
52209;DHT22;38507;53.132;6.394;2022-08-18T06:19:01;18.80;99.90
52209;DHT22;38507;53.132;6.394;2022-08-18T06:21:43;18.80;99.90
52209;DHT22;38507;53.132;6.394;2022-08-18T06:27:44;18.90;99.90
52209;DHT22;38507;53.132;6.394;2022-08-18T06:41:49;19.10;99.90
52209;DHT22;38507;53.132;6.394;2022-08-18T06:52:38;19.10;99.90
52209;DHT22;38507;53.132;6.394;2022-08-18T06:55:15;19.10;99.90
52209;DHT22;38507;53.132;6.394;2022-08-18T06:57:56;19.00;99.90
52209;DHT22;38507;53.132;6.394;2022-08-18T07:00:25;19.00;99.90
52209;DHT22;38507;53.132;6.394;2022-08-18T07:05:27;19.10;99.90
52209;DHT22;38507;53.132;6.394;2022-08-18T07:08:14;19.10;99.90
52209;DHT22;38507;53.132;6.394;2022-08-18T07:10:47;19.10;99.90
52209;DHT22;38507;53.132;6.394;2022-08-18T07:15:47;19.10;99.90
52209;DHT22;38507;53.132;6.394;2022-08-18T07:18:20;19.10;99.90
52209;DHT22;38507;53.132;6.394;2022-08-18T07:20:53;19.10;99.90
52209;DHT22;38507;53.132;6.394;2022-08-18T07:23:27;19.20;99.90
52209;DHT22;38507;53.132;6.394;2022-08-18T07:26:12;19.20;99.90
52209;DHT22;38507;53.132;6.394;2022-08-18T07:28:42;19.30;99.90
52209;DHT22;38507;53.132;6.394;2022-08-18T07:34:20;19.40;99.90
52209;DHT22;38507;53.132;6.394;2022-08-18T07:37:00;19.50;99.90
52209;DHT22;38507;53.132;6.394;2022-08-18T07:39:42;19.60;99.90
52209;DHT22;38507;53.132;6.394;2022-08-18T07:42:16;19.70;99.90
52209;DHT22;38507;53.132;6.394;2022-08-18T07:45:04;19.80;99.90
52209;DHT22;38507;53.132;6.394;2022-08-18T07:47:40;20.00;99.90
52209;DHT22;38507;53.132;6.394;2022-08-18T07:50:11;20.10;99.90
52209;DHT22;38507;53.132;6.394;2022-08-18T07:52:47;20.30;99.90
52209;DHT22;38507;53.132;6.394;2022-08-18T07:57:50;20.60;99.90
52209;DHT22;38507;53.132;6.394;2022-08-18T08:00:31;20.50;99.90
52209;DHT22;38507;53.132;6.394;2022-08-18T08:08:25;20.40;99.90
52209;DHT22;38507;53.132;6.394;2022-08-18T08:11:12;20.40;99.90
52209;DHT22;38507;53.132;6.394;2022-08-18T08:13:48;20.30;99.90
52209;DHT22;38507;53.132;6.394;2022-08-18T08:16:25;20.30;99.90
52209;DHT22;38507;53.132;6.394;2022-08-18T08:21:23;20.20;99.90
52209;DHT22;38507;53.132;6.394;2022-08-18T08:26:49;20.30;99.90
52209;DHT22;38507;53.132;6.394;2022-08-18T08:32:00;20.30;99.90
52209;DHT22;38507;53.132;6.394;2022-08-18T08:34:27;20.30;99.90
52209;DHT22;38507;53.132;6.394;2022-08-18T08:37:04;20.40;99.90
52209;DHT22;38507;53.132;6.394;2022-08-18T08:39:47;20.40;99.90
52209;DHT22;38507;53.132;6.394;2022-08-18T08:45:07;20.50;99.90
52209;DHT22;38507;53.132;6.394;2022-08-18T08:47:50;20.60;99.90
52209;DHT22;38507;53.132;6.394;2022-08-18T08:50:24;20.60;99.90
52209;DHT22;38507;53.132;6.394;2022-08-18T08:53:18;20.50;99.90
52209;DHT22;38507;53.132;6.394;2022-08-18T08:55:50;20.60;99.90
52209;DHT22;38507;53.132;6.394;2022-08-18T08:58:20;20.60;99.90
52209;DHT22;38507;53.132;6.394;2022-08-18T09:00:47;20.60;99.90
52209;DHT22;38507;53.132;6.394;2022-08-18T09:03:38;20.70;99.90
52209;DHT22;38507;53.132;6.394;2022-08-18T09:06:37;21.10;99.90
52209;DHT22;38507;53.132;6.394;2022-08-18T09:15:02;21.70;99.90
52209;DHT22;38507;53.132;6.394;2022-08-18T09:23:19;21.80;99.90
52209;DHT22;38507;53.132;6.394;2022-08-18T09:25:52;21.80;99.90
52209;DHT22;38507;53.132;6.394;2022-08-18T09:28:41;21.80;99.90
52209;DHT22;38507;53.132;6.394;2022-08-18T09:31:17;22.20;99.90
52209;DHT22;38507;53.132;6.394;2022-08-18T09:34:29;22.60;99.90
52209;DHT22;38507;53.132;6.394;2022-08-18T09:37:10;22.90;99.90
52209;DHT22;38507;53.132;6.394;2022-08-18T09:39:40;22.90;99.90
52209;DHT22;38507;53.132;6.394;2022-08-18T09:42:47;23.00;99.90
52209;DHT22;38507;53.132;6.394;2022-08-18T09:48:00;23.10;99.90
52209;DHT22;38507;53.132;6.394;2022-08-18T09:52:56;22.90;99.90
52209;DHT22;38507;53.132;6.394;2022-08-18T09:58:13;22.90;99.90
52209;DHT22;38507;53.132;6.394;2022-08-18T10:00:39;23.00;99.90
52209;DHT22;38507;53.132;6.394;2022-08-18T10:03:12;22.90;99.90
52209;DHT22;38507;53.132;6.394;2022-08-18T10:05:39;23.00;99.90
52209;DHT22;38507;53.132;6.394;2022-08-18T10:18:41;23.00;99.90
52209;DHT22;38507;53.132;6.394;2022-08-18T10:21:17;23.10;99.90
52209;DHT22;38507;53.132;6.394;2022-08-18T10:24:27;23.30;99.90
52209;DHT22;38507;53.132;6.394;2022-08-18T10:34:40;23.60;99.90
52209;DHT22;38507;53.132;6.394;2022-08-18T10:39:52;23.50;99.90
52209;DHT22;38507;53.132;6.394;2022-08-18T10:42:21;23.70;99.90
52209;DHT22;38507;53.132;6.394;2022-08-18T10:44:49;23.60;99.90
52209;DHT22;38507;53.132;6.394;2022-08-18T10:47:34;23.80;99.90
52209;DHT22;38507;53.132;6.394;2022-08-18T10:50:20;23.70;99.90
52209;DHT22;38507;53.132;6.394;2022-08-18T10:55:31;23.50;99.90
52209;DHT22;38507;53.132;6.394;2022-08-18T11:06:26;23.60;99.90
52209;DHT22;38507;53.132;6.394;2022-08-18T11:08:59;23.70;99.90
52209;DHT22;38507;53.132;6.394;2022-08-18T11:11:37;23.60;99.90
52209;DHT22;38507;53.132;6.394;2022-08-18T11:19:25;23.50;99.90
52209;DHT22;38507;53.132;6.394;2022-08-18T11:21:51;23.40;99.90
52209;DHT22;38507;53.132;6.394;2022-08-18T11:26:57;23.30;99.90
52209;DHT22;38507;53.132;6.394;2022-08-18T11:29:30;23.10;99.90
52209;DHT22;38507;53.132;6.394;2022-08-18T11:34:51;23.20;99.90
52209;DHT22;38507;53.132;6.394;2022-08-18T11:37:28;23.50;99.90
52209;DHT22;38507;53.132;6.394;2022-08-18T11:39:58;23.50;99.90
52209;DHT22;38507;53.132;6.394;2022-08-18T11:42:31;23.60;99.90
52209;DHT22;38507;53.132;6.394;2022-08-18T11:47:38;23.70;99.90
52209;DHT22;38507;53.132;6.394;2022-08-18T11:50:29;23.70;99.90
52209;DHT22;38507;53.132;6.394;2022-08-18T11:52:55;23.60;99.90
52209;DHT22;38507;53.132;6.394;2022-08-18T11:55:30;23.60;99.90
52209;DHT22;38507;53.132;6.394;2022-08-18T11:57:58;23.30;99.90
52209;DHT22;38507;53.132;6.394;2022-08-18T12:00:40;23.30;99.90
52209;DHT22;38507;53.132;6.394;2022-08-18T12:03:26;23.30;99.90
52209;DHT22;38507;53.132;6.394;2022-08-18T12:05:56;23.20;99.90
52209;DHT22;38507;53.132;6.394;2022-08-18T12:08:33;23.30;99.90
52209;DHT22;38507;53.132;6.394;2022-08-18T12:13:30;23.40;99.90
52209;DHT22;38507;53.132;6.394;2022-08-18T12:18:39;24.00;99.90
52209;DHT22;38507;53.132;6.394;2022-08-18T12:21:05;23.90;99.90
52209;DHT22;38507;53.132;6.394;2022-08-18T12:23:33;23.80;99.90
52209;DHT22;38507;53.132;6.394;2022-08-18T12:26:00;23.70;99.90
52209;DHT22;38507;53.132;6.394;2022-08-18T12:28:25;23.70;99.90
52209;DHT22;38507;53.132;6.394;2022-08-18T12:30:52;23.80;99.90
52209;DHT22;38507;53.132;6.394;2022-08-18T12:33:18;24.00;99.90
52209;DHT22;38507;53.132;6.394;2022-08-18T12:35:44;24.20;99.90
52209;DHT22;38507;53.132;6.394;2022-08-18T12:38:11;24.50;99.90
52209;DHT22;38507;53.132;6.394;2022-08-18T12:40:38;24.40;99.90
52209;DHT22;38507;53.132;6.394;2022-08-18T12:43:04;24.20;99.90
52209;DHT22;38507;53.132;6.394;2022-08-18T12:45:30;24.60;99.90
52209;DHT22;38507;53.132;6.394;2022-08-18T12:47:56;25.00;99.90
52209;DHT22;38507;53.132;6.394;2022-08-18T12:50:22;25.30;99.90
52209;DHT22;38507;53.132;6.394;2022-08-18T12:52:47;25.50;99.90
52209;DHT22;38507;53.132;6.394;2022-08-18T12:55:13;25.80;99.90
52209;DHT22;38507;53.132;6.394;2022-08-18T12:57:39;25.80;99.90
52209;DHT22;38507;53.132;6.394;2022-08-18T13:00:05;26.00;99.90
52209;DHT22;38507;53.132;6.394;2022-08-18T13:02:33;26.20;99.90
52209;DHT22;38507;53.132;6.394;2022-08-18T13:04:59;26.40;99.90
52209;DHT22;38507;53.132;6.394;2022-08-18T13:07:24;26.70;99.90
52209;DHT22;38507;53.132;6.394;2022-08-18T13:09:50;26.50;99.90
52209;DHT22;38507;53.132;6.394;2022-08-18T13:12:16;26.30;99.90
52209;DHT22;38507;53.132;6.394;2022-08-18T13:14:42;26.10;99.90
52209;DHT22;38507;53.132;6.394;2022-08-18T13:17:08;26.10;99.90
52209;DHT22;38507;53.132;6.394;2022-08-18T13:19:34;25.90;99.90
52209;DHT22;38507;53.132;6.394;2022-08-18T13:22:00;25.90;99.90
52209;DHT22;38507;53.132;6.394;2022-08-18T13:24:26;26.00;99.90
52209;DHT22;38507;53.132;6.394;2022-08-18T13:26:51;26.20;99.90
52209;DHT22;38507;53.132;6.394;2022-08-18T13:29:17;26.50;99.90
52209;DHT22;38507;53.132;6.394;2022-08-18T13:31:44;26.60;99.90
52209;DHT22;38507;53.132;6.394;2022-08-18T13:34:10;26.50;99.90
52209;DHT22;38507;53.132;6.394;2022-08-18T13:36:37;26.20;99.90
52209;DHT22;38507;53.132;6.394;2022-08-18T13:39:11;26.30;99.90
52209;DHT22;38507;53.132;6.394;2022-08-18T13:41:37;26.50;99.90
52209;DHT22;38507;53.132;6.394;2022-08-18T13:44:02;26.70;99.90
52209;DHT22;38507;53.132;6.394;2022-08-18T13:46:28;27.00;99.90
52209;DHT22;38507;53.132;6.394;2022-08-18T13:48:54;27.10;99.90
52209;DHT22;38507;53.132;6.394;2022-08-18T13:51:23;27.30;99.90
52209;DHT22;38507;53.132;6.394;2022-08-18T13:53:49;27.40;99.90
52209;DHT22;38507;53.132;6.394;2022-08-18T13:56:15;27.50;99.90
52209;DHT22;38507;53.132;6.394;2022-08-18T13:58:42;27.50;99.90
52209;DHT22;38507;53.132;6.394;2022-08-18T14:01:09;27.70;99.90
52209;DHT22;38507;53.132;6.394;2022-08-18T14:03:36;27.70;99.90
52209;DHT22;38507;53.132;6.394;2022-08-18T14:06:02;27.90;99.90
52209;DHT22;38507;53.132;6.394;2022-08-18T14:08:29;27.70;99.90
52209;DHT22;38507;53.132;6.394;2022-08-18T14:10:58;27.50;99.90
52209;DHT22;38507;53.132;6.394;2022-08-18T14:13:24;27.60;99.90
52209;DHT22;38507;53.132;6.394;2022-08-18T14:15:54;27.70;99.90
52209;DHT22;38507;53.132;6.394;2022-08-18T14:18:21;27.70;99.90
52209;DHT22;38507;53.132;6.394;2022-08-18T14:20:47;27.80;99.90
52209;DHT22;38507;53.132;6.394;2022-08-18T14:23:31;27.60;99.90
52209;DHT22;38507;53.132;6.394;2022-08-18T14:26:15;27.30;99.90
52209;DHT22;38507;53.132;6.394;2022-08-18T14:28:59;27.10;99.90
52209;DHT22;38507;53.132;6.394;2022-08-18T14:31:25;27.00;99.90
52209;DHT22;38507;53.132;6.394;2022-08-18T14:33:51;27.00;99.90
52209;DHT22;38507;53.132;6.394;2022-08-18T14:36:17;26.80;99.90
52209;DHT22;38507;53.132;6.394;2022-08-18T14:38:43;26.50;99.90
52209;DHT22;38507;53.132;6.394;2022-08-18T14:41:11;26.50;99.90
52209;DHT22;38507;53.132;6.394;2022-08-18T14:43:37;26.80;99.90
52209;DHT22;38507;53.132;6.394;2022-08-18T14:46:03;27.10;99.90
52209;DHT22;38507;53.132;6.394;2022-08-18T14:48:31;27.00;99.90
52209;DHT22;38507;53.132;6.394;2022-08-18T14:50:58;26.80;99.90
52209;DHT22;38507;53.132;6.394;2022-08-18T14:53:27;26.60;99.90
52209;DHT22;38507;53.132;6.394;2022-08-18T14:55:53;26.80;99.90
52209;DHT22;38507;53.132;6.394;2022-08-18T14:58:24;26.80;99.90
52209;DHT22;38507;53.132;6.394;2022-08-18T15:01:11;26.70;99.90
52209;DHT22;38507;53.132;6.394;2022-08-18T15:03:37;26.60;99.90
52209;DHT22;38507;53.132;6.394;2022-08-18T15:06:04;26.40;99.90
52209;DHT22;38507;53.132;6.394;2022-08-18T15:08:32;26.40;99.90
52209;DHT22;38507;53.132;6.394;2022-08-18T15:10:58;26.40;99.90
52209;DHT22;38507;53.132;6.394;2022-08-18T15:13:24;26.20;99.90
52209;DHT22;38507;53.132;6.394;2022-08-18T15:15:51;26.20;99.90
52209;DHT22;38507;53.132;6.394;2022-08-18T15:18:17;26.10;99.90
52209;DHT22;38507;53.132;6.394;2022-08-18T15:20:44;25.90;99.90
52209;DHT22;38507;53.132;6.394;2022-08-18T15:23:28;25.90;99.90
52209;DHT22;38507;53.132;6.394;2022-08-18T15:26:19;25.80;99.90
52209;DHT22;38507;53.132;6.394;2022-08-18T15:28:46;25.60;99.90
52209;DHT22;38507;53.132;6.394;2022-08-18T15:31:12;25.80;99.90
52209;DHT22;38507;53.132;6.394;2022-08-18T15:33:37;25.90;99.90
52209;DHT22;38507;53.132;6.394;2022-08-18T15:36:03;26.10;99.90
52209;DHT22;38507;53.132;6.394;2022-08-18T15:38:29;26.20;99.90
52209;DHT22;38507;53.132;6.394;2022-08-18T15:40:58;26.40;99.90
52209;DHT22;38507;53.132;6.394;2022-08-18T15:43:28;26.60;99.90
52209;DHT22;38507;53.132;6.394;2022-08-18T15:45:55;26.70;99.90
52209;DHT22;38507;53.132;6.394;2022-08-18T15:48:22;26.90;99.90
52209;DHT22;38507;53.132;6.394;2022-08-18T15:50:48;27.10;99.90
52209;DHT22;38507;53.132;6.394;2022-08-18T15:53:18;27.10;99.90
52209;DHT22;38507;53.132;6.394;2022-08-18T15:55:44;27.20;99.90
52209;DHT22;38507;53.132;6.394;2022-08-18T15:58:10;27.40;99.90
52209;DHT22;38507;53.132;6.394;2022-08-18T16:00:41;27.40;99.90
52209;DHT22;38507;53.132;6.394;2022-08-18T16:03:09;27.50;99.90
52209;DHT22;38507;53.132;6.394;2022-08-18T16:05:39;27.60;99.90
52209;DHT22;38507;53.132;6.394;2022-08-18T16:08:07;27.80;99.90
52209;DHT22;38507;53.132;6.394;2022-08-18T16:10:36;27.80;99.90
52209;DHT22;38507;53.132;6.394;2022-08-18T16:13:03;27.80;99.90
52209;DHT22;38507;53.132;6.394;2022-08-18T16:15:34;27.30;99.90
52209;DHT22;38507;53.132;6.394;2022-08-18T16:18:00;27.00;99.90
52209;DHT22;38507;53.132;6.394;2022-08-18T16:20:26;27.10;99.90
52209;DHT22;38507;53.132;6.394;2022-08-18T16:22:55;27.20;99.90
52209;DHT22;38507;53.132;6.394;2022-08-18T16:25:24;27.30;99.90
52209;DHT22;38507;53.132;6.394;2022-08-18T16:27:50;27.40;99.90
52209;DHT22;38507;53.132;6.394;2022-08-18T16:30:22;27.30;99.90
52209;DHT22;38507;53.132;6.394;2022-08-18T16:32:48;27.10;99.90
52209;DHT22;38507;53.132;6.394;2022-08-18T16:35:15;27.30;99.90
52209;DHT22;38507;53.132;6.394;2022-08-18T16:37:43;27.40;99.90
52209;DHT22;38507;53.132;6.394;2022-08-18T16:40:10;27.50;99.90
52209;DHT22;38507;53.132;6.394;2022-08-18T16:42:36;27.60;99.90
52209;DHT22;38507;53.132;6.394;2022-08-18T16:45:04;27.70;99.90
52209;DHT22;38507;53.132;6.394;2022-08-18T16:47:33;27.80;99.90
52209;DHT22;38507;53.132;6.394;2022-08-18T16:50:08;27.70;99.90
52209;DHT22;38507;53.132;6.394;2022-08-18T16:52:34;27.70;99.90
52209;DHT22;38507;53.132;6.394;2022-08-18T16:55:01;27.80;99.90
52209;DHT22;38507;53.132;6.394;2022-08-18T16:57:27;27.90;99.90
52209;DHT22;38507;53.132;6.394;2022-08-18T17:00:12;27.70;99.90
52209;DHT22;38507;53.132;6.394;2022-08-18T17:02:56;27.70;99.90
52209;DHT22;38507;53.132;6.394;2022-08-18T17:05:40;27.50;99.90
52209;DHT22;38507;53.132;6.394;2022-08-18T17:08:06;27.50;99.90
52209;DHT22;38507;53.132;6.394;2022-08-18T17:10:31;27.60;99.90
52209;DHT22;38507;53.132;6.394;2022-08-18T17:13:03;27.60;99.90
52209;DHT22;38507;53.132;6.394;2022-08-18T17:15:30;27.60;99.90
52209;DHT22;38507;53.132;6.394;2022-08-18T17:17:56;27.30;99.90
52209;DHT22;38507;53.132;6.394;2022-08-18T17:20:21;27.30;99.90
52209;DHT22;38507;53.132;6.394;2022-08-18T17:22:47;27.30;99.90
52209;DHT22;38507;53.132;6.394;2022-08-18T17:25:17;27.20;99.90
52209;DHT22;38507;53.132;6.394;2022-08-18T17:27:47;27.20;99.90
52209;DHT22;38507;53.132;6.394;2022-08-18T17:30:18;27.20;99.90
52209;DHT22;38507;53.132;6.394;2022-08-18T17:32:50;27.00;99.90
52209;DHT22;38507;53.132;6.394;2022-08-18T17:35:25;27.00;99.90
52209;DHT22;38507;53.132;6.394;2022-08-18T17:37:55;26.90;99.90
52209;DHT22;38507;53.132;6.394;2022-08-18T17:40:34;26.70;99.90
52209;DHT22;38507;53.132;6.394;2022-08-18T17:43:02;26.60;99.90
52209;DHT22;38507;53.132;6.394;2022-08-18T17:45:31;26.50;99.90
52209;DHT22;38507;53.132;6.394;2022-08-18T17:48:01;26.10;99.90
52209;DHT22;38507;53.132;6.394;2022-08-18T17:50:33;25.70;99.90
52209;DHT22;38507;53.132;6.394;2022-08-18T17:53:19;25.80;99.90
52209;DHT22;38507;53.132;6.394;2022-08-18T17:56:01;25.70;99.90
52209;DHT22;38507;53.132;6.394;2022-08-18T18:01:14;24.90;99.90